Time;durP1;ratioP1;P1;durP2;ratioP2;P2;SDS_P1;SDS_P2;PMS_P1;PMS_P2;Temp;Humidity;BMP_temperature;BMP_pressure;BME280_temperature;BME280_humidity;BME280_pressure;Samples;Min_cycle;Max_cycle;Signal;HPM_P1;HPM_P2
2022/11/29 00:01:29;;;;;;;13.70;9.63;;;10.20;99.90;;;;;;4965093;28;20058;-76
2022/11/29 00:03:57;;;;;;;13.07;8.93;;;10.20;99.90;;;;;;4952326;28;20505;-75
2022/11/29 00:06:28;;;;;;;14.60;9.88;;;10.20;99.90;;;;;;4971768;28;20137;-75
2022/11/29 00:08:58;;;;;;;14.57;8.98;;;10.20;99.90;;;;;;4973699;28;20408;-75
2022/11/29 00:14:19;;;;;;;12.07;7.60;;;10.20;99.90;;;;;;4979946;28;20042;-75
2022/11/29 00:17:01;;;;;;;12.43;7.93;;;10.20;99.90;;;;;;4974784;28;20047;-75
2022/11/29 00:19:31;;;;;;;12.85;8.48;;;10.20;99.90;;;;;;4954716;28;20046;-76
2022/11/29 00:21:59;;;;;;;15.38;10.27;;;10.20;99.90;;;;;;4974329;28;20042;-75
2022/11/29 00:24:27;;;;;;;18.48;11.35;;;10.20;99.90;;;;;;4971894;28;20046;-75
2022/11/29 00:26:55;;;;;;;12.90;9.23;;;10.10;99.90;;;;;;4957694;28;20400;-75
2022/11/29 00:29:23;;;;;;;14.65;10.43;;;10.10;99.90;;;;;;4951716;28;20157;-75
2022/11/29 00:31:50;;;;;;;16.17;10.27;;;10.00;99.90;;;;;;4942178;28;20082;-75
2022/11/29 00:34:18;;;;;;;17.58;10.85;;;10.00;99.90;;;;;;4970135;28;20065;-75
2022/11/29 00:36:45;;;;;;;14.65;10.55;;;10.00;99.90;;;;;;4960271;28;20124;-75
2022/11/29 00:39:13;;;;;;;18.55;10.88;;;10.00;99.90;;;;;;4965960;28;20038;-75
2022/11/29 00:41:40;;;;;;;16.42;10.80;;;10.00;99.90;;;;;;4972367;28;20528;-75
2022/11/29 00:44:09;;;;;;;17.75;12.05;;;9.90;99.90;;;;;;4975028;28;20061;-75
2022/11/29 00:46:38;;;;;;;17.60;12.23;;;9.90;99.90;;;;;;4968635;28;20054;-75
2022/11/29 00:49:05;;;;;;;19.15;14.02;;;9.90;99.90;;;;;;4968636;28;20038;-75
2022/11/29 00:51:33;;;;;;;21.13;13.32;;;9.80;99.90;;;;;;4958861;28;20408;-75
2022/11/29 00:54:00;;;;;;;22.48;13.63;;;9.70;99.90;;;;;;4976981;28;20039;-75
2022/11/29 00:56:28;;;;;;;20.98;12.10;;;9.60;99.90;;;;;;4971560;28;20074;-75
2022/11/29 00:58:56;;;;;;;23.52;15.00;;;9.60;99.90;;;;;;4974896;28;20046;-75
2022/11/29 01:01:23;;;;;;;23.25;14.35;;;9.40;99.90;;;;;;4961550;28;20050;-75
2022/11/29 01:03:51;;;;;;;21.80;14.02;;;9.30;99.90;;;;;;4970453;28;20431;-75
2022/11/29 01:06:18;;;;;;;21.88;14.65;;;9.40;99.90;;;;;;4957125;28;20058;-75
2022/11/29 01:08:46;;;;;;;19.20;13.57;;;9.40;99.90;;;;;;4968582;28;20053;-76
2022/11/29 01:11:20;;;;;;;21.52;13.90;;;9.40;99.90;;;;;;4952461;28;20054;-75
2022/11/29 01:13:48;;;;;;;18.70;12.38;;;9.40;99.90;;;;;;4948467;28;20095;-75
2022/11/29 01:16:16;;;;;;;16.95;13.65;;;9.40;99.90;;;;;;4976896;28;20065;-75
2022/11/29 01:18:44;;;;;;;22.05;13.52;;;9.40;99.90;;;;;;4976078;28;20073;-76
2022/11/29 01:21:16;;;;;;;20.08;13.68;;;9.40;99.90;;;;;;4978674;28;20054;-75
2022/11/29 01:23:44;;;;;;;16.73;10.95;;;9.40;99.90;;;;;;4965969;28;20065;-76
2022/11/29 01:26:15;;;;;;;17.80;12.45;;;9.40;99.90;;;;;;4970870;28;20042;-76
2022/11/29 01:28:45;;;;;;;20.80;12.35;;;9.40;99.90;;;;;;4951375;28;20138;-76
2022/11/29 01:31:15;;;;;;;19.38;12.40;;;9.40;99.90;;;;;;4965533;28;20045;-76
2022/11/29 01:33:43;;;;;;;18.40;12.38;;;9.40;99.90;;;;;;4958589;28;20038;-75
2022/11/29 01:36:12;;;;;;;19.25;10.85;;;9.40;99.90;;;;;;4972505;28;20118;-75
2022/11/29 01:38:41;;;;;;;17.95;13.00;;;9.40;99.90;;;;;;4979256;28;20130;-76
2022/11/29 01:41:13;;;;;;;17.98;11.90;;;9.40;99.90;;;;;;4969434;28;20053;-76
2022/11/29 01:44:04;;;;;;;22.55;12.55;;;9.40;99.90;;;;;;4943795;28;20073;-76
2022/11/29 01:46:37;;;;;;;18.83;11.15;;;9.40;99.90;;;;;;4944990;28;20062;-75
2022/11/29 01:49:19;;;;;;;16.45;10.57;;;9.40;99.90;;;;;;4972880;28;20046;-76
2022/11/29 01:51:51;;;;;;;18.17;11.40;;;9.40;99.90;;;;;;4965225;28;20420;-75
2022/11/29 01:54:20;;;;;;;15.32;10.80;;;9.40;99.90;;;;;;4970816;28;20050;-76
2022/11/29 01:56:49;;;;;;;15.65;9.73;;;9.40;99.90;;;;;;4970559;28;20094;-76
2022/11/29 01:59:20;;;;;;;14.63;9.00;;;9.40;99.90;;;;;;4955457;28;20073;-76
2022/11/29 02:01:48;;;;;;;13.15;8.82;;;9.40;99.90;;;;;;4968049;28;20043;-76
2022/11/29 02:04:17;;;;;;;12.52;8.48;;;9.40;99.90;;;;;;4978847;28;20124;-76
2022/11/29 02:06:45;;;;;;;12.77;7.22;;;9.40;99.90;;;;;;4948186;28;20427;-76
2022/11/29 02:09:22;;;;;;;14.63;8.32;;;9.40;99.90;;;;;;4956821;28;20477;-76
2022/11/29 02:12:21;;;;;;;11.95;6.90;;;9.40;99.90;;;;;;4983460;28;20497;-76
2022/11/29 02:15:37;;;;;;;11.85;6.85;;;9.50;99.90;;;;;;4939862;28;20440;-76
2022/11/29 02:18:16;;;;;;;8.43;6.57;;;9.50;99.90;;;;;;4967774;28;20636;-76
2022/11/29 02:20:59;;;;;;;11.15;7.07;;;9.50;99.90;;;;;;4990976;28;20085;-76
2022/11/29 02:24:01;;;;;;;10.15;6.07;;;9.60;99.90;;;;;;4973392;28;20061;-76
2022/11/29 02:26:49;;;;;;;7.80;6.22;;;9.60;99.90;;;;;;4954385;28;20061;-76
2022/11/29 02:29:55;;;;;;;9.70;6.63;;;9.60;99.90;;;;;;4970025;28;20108;-75
2022/11/29 02:32:47;;;;;;;6.55;4.38;;;9.70;99.90;;;;;;4955573;28;20059;-76
2022/11/29 02:35:35;;;;;;;10.73;4.68;;;9.70;99.90;;;;;;4988220;28;20116;-76
2022/11/29 02:38:02;;;;;;;8.85;4.55;;;9.80;99.90;;;;;;4970808;28;20495;-77
2022/11/29 02:40:52;;;;;;;9.18;5.60;;;9.80;99.90;;;;;;4988432;28;20551;-77
2022/11/29 02:44:11;;;;;;;6.97;4.53;;;9.80;99.90;;;;;;4959186;28;20043;-77
2022/11/29 02:46:46;;;;;;;9.45;5.15;;;9.90;99.90;;;;;;4906516;29;20069;-77
2022/11/29 02:49:22;;;;;;;7.72;4.35;;;9.90;99.90;;;;;;4955997;28;20038;-75
2022/11/29 02:52:06;;;;;;;6.97;4.43;;;9.90;99.90;;;;;;4950908;28;20069;-75
2022/11/29 02:54:49;;;;;;;7.10;4.43;;;9.90;99.90;;;;;;4968179;28;20043;-75
2022/11/29 02:57:22;;;;;;;8.48;4.93;;;9.90;99.90;;;;;;4978705;28;20452;-76
2022/11/29 03:00:02;;;;;;;7.22;5.20;;;9.90;99.90;;;;;;4959260;28;20046;-75
2022/11/29 03:02:47;;;;;;;8.32;5.65;;;10.00;99.90;;;;;;4968600;28;20401;-75
2022/11/29 03:05:33;;;;;;;7.03;4.05;;;10.00;99.90;;;;;;4970827;28;20041;-76
2022/11/29 03:08:21;;;;;;;10.05;3.85;;;10.00;99.90;;;;;;4975162;28;20074;-75
2022/11/29 03:11:02;;;;;;;7.10;4.47;;;10.00;99.90;;;;;;4950664;29;20051;-75
2022/11/29 03:13:56;;;;;;;7.22;4.88;;;10.00;99.90;;;;;;4949933;28;20063;-75
2022/11/29 03:16:33;;;;;;;6.25;4.20;;;9.90;99.90;;;;;;4958726;28;20054;-75
2022/11/29 03:19:36;;;;;;;7.05;4.53;;;9.90;99.90;;;;;;4952258;28;20130;-75
2022/11/29 03:22:53;;;;;;;7.65;4.80;;;9.90;99.90;;;;;;4931809;28;20042;-75
2022/11/29 03:25:43;;;;;;;8.73;4.55;;;9.80;99.90;;;;;;4911563;28;20051;-75
2022/11/29 03:28:17;;;;;;;6.43;4.05;;;9.90;99.90;;;;;;4968518;28;20124;-76
2022/11/29 03:30:57;;;;;;;7.07;4.25;;;9.90;99.90;;;;;;4960785;28;20513;-75
2022/11/29 03:34:06;;;;;;;7.20;4.07;;;9.90;99.90;;;;;;4988077;28;20054;-75
2022/11/29 03:36:49;;;;;;;6.57;4.15;;;10.00;99.90;;;;;;4988117;28;20060;-75
2022/11/29 03:39:38;;;;;;;6.82;4.82;;;9.90;99.90;;;;;;4979025;28;20074;-75
2022/11/29 03:42:15;;;;;;;6.63;4.72;;;9.90;99.90;;;;;;4939651;29;20166;-75
2022/11/29 03:44:55;;;;;;;7.40;4.55;;;9.90;99.90;;;;;;4948592;28;20039;-76
2022/11/29 03:47:33;;;;;;;7.10;4.50;;;10.00;99.90;;;;;;4960006;28;20031;-76
2022/11/29 03:50:09;;;;;;;8.15;4.47;;;10.00;99.90;;;;;;4982504;28;20050;-75
2022/11/29 03:53:24;;;;;;;8.23;4.60;;;10.00;99.90;;;;;;4988533;28;20400;-76
2022/11/29 03:55:58;;;;;;;7.30;4.63;;;10.00;99.90;;;;;;4956744;28;20068;-76
2022/11/29 03:58:42;;;;;;;7.53;4.22;;;10.00;99.90;;;;;;4955485;28;20051;-75
2022/11/29 04:01:55;;;;;;;8.40;4.53;;;10.10;99.90;;;;;;4972622;28;20051;-76
2022/11/29 04:04:31;;;;;;;5.57;3.78;;;10.00;99.90;;;;;;4895632;29;20646;-75
2022/11/29 04:07:15;;;;;;;8.20;4.88;;;10.00;99.90;;;;;;4904372;29;20143;-76
2022/11/29 04:10:06;;;;;;;6.95;4.68;;;10.00;99.90;;;;;;4967635;28;20054;-75
2022/11/29 04:13:04;;;;;;;8.93;4.25;;;9.90;99.90;;;;;;4971740;28;20043;-76
2022/11/29 04:16:03;;;;;;;6.60;4.57;;;9.90;99.90;;;;;;4954908;28;20109;-76
2022/11/29 04:18:53;;;;;;;9.40;4.82;;;9.90;99.90;;;;;;4972218;28;20174;-76
2022/11/29 04:21:30;;;;;;;6.50;3.70;;;9.90;99.90;;;;;;4971157;28;20506;-76
2022/11/29 04:24:16;;;;;;;6.88;4.07;;;9.90;99.90;;;;;;4956839;28;20066;-76
2022/11/29 04:27:11;;;;;;;6.50;4.73;;;9.90;99.90;;;;;;4975890;28;20050;-75
2022/11/29 04:29:54;;;;;;;8.05;5.35;;;9.90;99.90;;;;;;4992592;28;20778;-75
2022/11/29 04:32:56;;;;;;;7.13;5.05;;;9.80;99.90;;;;;;4990369;28;20050;-76
2022/11/29 04:35:38;;;;;;;5.63;4.05;;;9.90;99.90;;;;;;4974551;28;20266;-75
2022/11/29 04:38:09;;;;;;;7.55;4.53;;;9.90;99.90;;;;;;4990438;28;20173;-75
2022/11/29 04:41:05;;;;;;;7.05;4.32;;;9.80;99.90;;;;;;4957031;28;20070;-75
2022/11/29 04:44:10;;;;;;;4.70;4.15;;;9.80;99.90;;;;;;4978429;28;20058;-75
2022/11/29 04:46:58;;;;;;;9.27;5.47;;;9.80;99.90;;;;;;4974298;28;20149;-75
2022/11/29 04:49:40;;;;;;;6.75;3.90;;;9.80;99.90;;;;;;4990637;28;20050;-75
2022/11/29 04:52:11;;;;;;;6.57;4.22;;;9.90;99.90;;;;;;4972866;28;20042;-75
2022/11/29 04:55:04;;;;;;;7.55;4.88;;;9.90;99.90;;;;;;4971724;28;20043;-75
2022/11/29 04:57:58;;;;;;;6.15;3.90;;;9.90;99.90;;;;;;4981181;28;20117;-75
2022/11/29 05:00:30;;;;;;;10.75;5.30;;;9.90;99.90;;;;;;4975002;28;20054;-74
2022/11/29 05:03:14;;;;;;;7.82;5.70;;;9.90;99.90;;;;;;4972738;28;20050;-76
2022/11/29 05:05:56;;;;;;;6.85;4.68;;;9.90;99.90;;;;;;4961842;28;20089;-75
2022/11/29 05:09:09;;;;;;;7.80;4.72;;;9.90;99.90;;;;;;4980979;28;20046;-75
2022/11/29 05:11:49;;;;;;;6.07;3.75;;;9.90;99.90;;;;;;4990045;28;20076;-75
2022/11/29 05:14:41;;;;;;;8.57;5.22;;;9.90;99.90;;;;;;4972810;28;20050;-75
2022/11/29 05:17:30;;;;;;;6.88;5.60;;;9.90;99.90;;;;;;4956573;28;20050;-75
2022/11/29 05:20:15;;;;;;;;;;;9.80;99.90;;;;;;4961992;28;20105;-75
2022/11/29 05:23:07;;;;;;;7.38;4.28;;;9.80;99.90;;;;;;4971405;28;20346;-77
2022/11/29 05:25:46;;;;;;;7.68;4.70;;;9.80;99.90;;;;;;4968696;28;20078;-76
2022/11/29 05:28:44;;;;;;;7.93;5.18;;;9.80;99.90;;;;;;4968627;28;20094;-79
2022/11/29 05:31:17;;;;;;;8.68;4.55;;;9.80;99.90;;;;;;4986492;28;20061;-76
2022/11/29 05:34:19;;;;;;;7.10;5.20;;;9.90;99.90;;;;;;4986439;28;20047;-75
2022/11/29 05:36:57;;;;;;;7.18;4.72;;;9.90;99.90;;;;;;4958346;28;20046;-77
2022/11/29 05:40:00;;;;;;;8.05;5.07;;;9.80;99.90;;;;;;4982305;28;20186;-76
2022/11/29 05:42:55;;;;;;;8.65;5.13;;;9.90;99.90;;;;;;4968235;28;20183;-76
2022/11/29 05:45:48;;;;;;;9.57;5.00;;;9.90;99.90;;;;;;4962331;28;20047;-76
2022/11/29 05:48:43;;;;;;;7.15;5.10;;;9.90;99.90;;;;;;4948357;28;20101;-75
2022/11/29 05:51:28;;;;;;;8.55;5.22;;;9.90;99.90;;;;;;4961725;28;20120;-76
2022/11/29 05:54:10;;;;;;;7.50;5.15;;;9.90;99.90;;;;;;4956852;28;20062;-76
2022/11/29 05:57:15;;;;;;;6.05;4.85;;;9.90;99.90;;;;;;4984057;28;20069;-76
2022/11/29 05:59:46;;;;;;;10.07;5.32;;;9.90;99.90;;;;;;4947938;28;20100;-76
2022/11/29 06:02:25;;;;;;;6.75;4.93;;;10.00;99.90;;;;;;4974644;28;20059;-75
2022/11/29 06:05:05;;;;;;;8.43;4.95;;;10.00;99.90;;;;;;4980174;28;20077;-78
2022/11/29 06:07:58;;;;;;;8.82;6.80;;;9.90;99.90;;;;;;4955682;28;20081;-78
2022/11/29 06:10:32;;;;;;;13.75;8.40;;;10.00;99.90;;;;;;4963064;28;20053;-78
2022/11/29 06:13:14;;;;;;;13.52;8.20;;;9.90;99.90;;;;;;4979472;28;20057;-77
2022/11/29 06:15:55;;;;;;;14.90;8.40;;;9.90;99.90;;;;;;4976697;28;20421;-78
2022/11/29 06:18:45;;;;;;;12.52;8.85;;;10.00;99.90;;;;;;4974945;28;20665;-78
2022/11/29 06:21:15;;;;;;;20.05;13.07;;;10.00;99.90;;;;;;4983179;28;20050;-80
2022/11/29 06:23:47;;;;;;;16.55;11.32;;;10.00;99.90;;;;;;4987853;28;20053;-79
2022/11/29 06:26:28;;;;;;;13.68;9.85;;;10.00;99.90;;;;;;4971772;28;20138;-79
2022/11/29 06:29:14;;;;;;;15.95;10.52;;;10.10;99.90;;;;;;4970160;28;20441;-79
2022/11/29 06:31:50;;;;;;;12.50;8.80;;;10.10;99.90;;;;;;4969208;28;20046;-77
2022/11/29 06:34:41;;;;;;;12.70;8.27;;;10.10;99.90;;;;;;4968076;28;20472;-78
2022/11/29 06:37:18;;;;;;;13.13;8.07;;;10.20;99.90;;;;;;4936110;28;20500;-78
2022/11/29 06:39:46;;;;;;;14.00;9.32;;;10.20;99.90;;;;;;4984721;28;20089;-77
2022/11/29 06:42:14;;;;;;;29.90;10.38;;;10.30;99.90;;;;;;4984915;28;20046;-77
2022/11/29 06:44:41;;;;;;;13.68;7.95;;;10.30;99.90;;;;;;4952806;28;20546;-77
2022/11/29 06:47:29;;;;;;;15.98;9.40;;;10.40;99.90;;;;;;4952730;28;20436;-77
2022/11/29 06:49:59;;;;;;;12.38;8.93;;;10.40;99.90;;;;;;4967819;28;20054;-78
2022/11/29 06:52:47;;;;;;;13.27;7.50;;;10.50;99.90;;;;;;4951617;28;20462;-77
2022/11/29 06:55:32;;;;;;;13.05;8.90;;;10.50;99.90;;;;;;4951285;28;20058;-77
2022/11/29 06:58:36;;;;;;;14.75;9.38;;;10.60;99.90;;;;;;4951964;28;20063;-78
2022/11/29 07:01:25;;;;;;;12.40;8.75;;;10.60;99.90;;;;;;4952135;28;20042;-77
2022/11/29 07:04:18;;;;;;;14.40;10.10;;;10.70;99.90;;;;;;4968209;28;20055;-77
2022/11/29 07:06:46;;;;;;;12.90;10.32;;;10.70;99.90;;;;;;4968620;28;20118;-78
2022/11/29 07:09:17;;;;;;;12.70;8.00;;;10.80;99.90;;;;;;4968439;28;20050;-77
2022/11/29 07:11:46;;;;;;;16.95;10.98;;;10.80;99.90;;;;;;4984727;28;20049;-77
2022/11/29 07:14:14;;;;;;;25.80;18.17;;;10.80;99.90;;;;;;4952768;28;20063;-78
2022/11/29 07:16:50;;;;;;;45.40;29.35;;;10.80;99.90;;;;;;4984902;28;20046;-77
2022/11/29 07:20:02;;;;;;;44.10;28.35;;;10.80;99.90;;;;;;4968962;28;20043;-77
2022/11/29 07:22:56;;;;;;;42.65;27.40;;;10.80;99.90;;;;;;4952786;28;20076;-78
2022/11/29 07:25:40;;;;;;;41.70;23.95;;;10.90;99.90;;;;;;4930921;28;20177;-77
2022/11/29 07:28:42;;;;;;;36.35;23.90;;;11.00;99.90;;;;;;4970064;28;20042;-77
2022/11/29 07:31:18;;;;;;;31.73;21.60;;;11.00;99.90;;;;;;4969401;28;20138;-78
2022/11/29 07:34:04;;;;;;;31.13;20.63;;;11.00;99.90;;;;;;4952910;28;20042;-78
2022/11/29 07:37:02;;;;;;;28.70;17.60;;;11.00;99.90;;;;;;4970008;28;20042;-77
2022/11/29 07:39:55;;;;;;;15.63;11.57;;;11.00;99.90;;;;;;4954520;28;20133;-77
2022/11/29 07:42:47;;;;;;;17.70;11.13;;;10.90;99.90;;;;;;4940808;28;20559;-78
2022/11/29 07:45:24;;;;;;;17.67;10.93;;;11.00;99.90;;;;;;4956052;28;20057;-77
2022/11/29 07:47:52;;;;;;;16.08;11.98;;;10.90;99.90;;;;;;4973036;28;20090;-77
2022/11/29 07:50:20;;;;;;;15.02;10.98;;;10.90;99.90;;;;;;4940251;28;20161;-77
2022/11/29 07:52:48;;;;;;;13.85;9.85;;;10.90;99.90;;;;;;4955951;28;20358;-77
2022/11/29 07:55:18;;;;;;;16.75;11.18;;;10.90;99.90;;;;;;4955888;28;20504;-78
2022/11/29 07:57:47;;;;;;;15.88;10.32;;;11.00;99.90;;;;;;4971771;28;20062;-77
2022/11/29 08:00:17;;;;;;;19.35;9.90;;;11.00;99.90;;;;;;4971561;28;20053;-77
2022/11/29 08:02:46;;;;;;;18.33;12.00;;;11.00;99.90;;;;;;4970961;28;20106;-77
2022/11/29 08:05:13;;;;;;;15.88;11.82;;;11.00;99.90;;;;;;4952371;29;20055;-77
2022/11/29 08:07:42;;;;;;;21.95;10.98;;;11.00;99.90;;;;;;4968760;28;20051;-77
2022/11/29 08:10:15;;;;;;;19.60;11.55;;;11.10;99.90;;;;;;4963324;28;20417;-78
2022/11/29 08:12:46;;;;;;;16.63;10.25;;;11.10;99.90;;;;;;4972071;28;20074;-77
2022/11/29 08:15:13;;;;;;;17.80;11.27;;;11.00;99.90;;;;;;4971758;28;20149;-78
2022/11/29 08:17:41;;;;;;;17.60;11.85;;;11.00;99.90;;;;;;4987550;28;20122;-78
2022/11/29 08:20:10;;;;;;;14.40;10.82;;;11.00;99.90;;;;;;4955844;28;20535;-77
2022/11/29 08:22:38;;;;;;;18.27;11.10;;;11.00;99.90;;;;;;4971242;28;20049;-78
2022/11/29 08:25:07;;;;;;;19.48;11.30;;;11.00;99.90;;;;;;4954272;28;20105;-75
2022/11/29 08:27:37;;;;;;;12.27;8.82;;;10.90;99.90;;;;;;4938736;28;20066;-75
2022/11/29 08:30:06;;;;;;;10.00;7.00;;;10.90;99.90;;;;;;4970418;28;20164;-75
2022/11/29 08:32:33;;;;;;;9.50;7.43;;;10.90;99.90;;;;;;4970385;28;20424;-75
2022/11/29 08:35:01;;;;;;;11.10;7.25;;;10.90;99.90;;;;;;4969886;28;20042;-75
2022/11/29 08:37:29;;;;;;;8.38;6.20;;;10.90;99.90;;;;;;4971565;28;20189;-75
2022/11/29 08:39:57;;;;;;;7.85;5.55;;;10.90;99.90;;;;;;4969839;28;20061;-74
2022/11/29 08:42:25;;;;;;;10.35;5.45;;;10.90;99.90;;;;;;4969865;28;20142;-75
2022/11/29 08:44:52;;;;;;;9.10;6.15;;;10.90;99.90;;;;;;4971184;28;20070;-75
2022/11/29 08:47:35;;;;;;;11.32;7.55;;;10.90;99.90;;;;;;4953675;28;20397;-75
2022/11/29 08:50:10;;;;;;;11.18;6.75;;;10.90;99.90;;;;;;4972173;28;20051;-77
2022/11/29 08:55:35;;;;;;;8.35;4.78;;;10.90;99.90;;;;;;4972627;28;20047;-78
2022/11/29 08:58:06;;;;;;;9.00;4.78;;;10.90;99.90;;;;;;4970779;28;20450;-77
2022/11/29 09:00:34;;;;;;;7.43;5.40;;;10.90;99.90;;;;;;4971540;28;20046;-77
2022/11/29 09:05:49;;;;;;;6.43;4.03;;;10.90;99.90;;;;;;4969245;28;20405;-78
2022/11/29 09:08:18;;;;;;;7.10;4.78;;;11.00;99.90;;;;;;4968946;28;20074;-78
2022/11/29 09:10:47;;;;;;;8.13;5.28;;;11.00;99.90;;;;;;4968698;28;20046;-79
2022/11/29 09:13:16;;;;;;;4.75;3.30;;;11.10;99.90;;;;;;4953203;28;20475;-78
2022/11/29 09:15:44;;;;;;;4.55;3.40;;;11.10;99.90;;;;;;4952397;28;20133;-78
2022/11/29 09:18:12;;;;;;;5.55;4.53;;;11.20;99.90;;;;;;4952639;28;20353;-78
2022/11/29 09:20:45;;;;;;;6.50;4.80;;;11.30;99.90;;;;;;4969197;28;20051;-77
2022/11/29 09:23:12;;;;;;;5.30;3.20;;;11.30;99.90;;;;;;4952016;28;20198;-74
2022/11/29 09:25:40;;;;;;;6.68;3.40;;;11.40;99.90;;;;;;4968491;28;20094;-78
2022/11/29 09:28:07;;;;;;;4.47;3.00;;;11.50;99.90;;;;;;4969049;28;20055;-78
2022/11/29 09:30:36;;;;;;;4.88;3.38;;;11.50;99.90;;;;;;4969446;28;20520;-74
2022/11/29 09:33:04;;;;;;;4.70;3.38;;;11.50;99.90;;;;;;4953252;28;20046;-75
2022/11/29 09:35:32;;;;;;;9.98;7.80;;;11.40;99.90;;;;;;4970273;28;20039;-75
2022/11/29 09:38:00;;;;;;;9.80;7.10;;;11.40;99.90;;;;;;4969344;28;20053;-76
2022/11/29 09:40:45;;;;;;;7.25;5.85;;;11.40;99.90;;;;;;4953013;28;20051;-76
2022/11/29 09:43:31;;;;;;;7.80;5.55;;;11.30;99.90;;;;;;4970401;28;20050;-76
2022/11/29 09:46:21;;;;;;;7.80;5.65;;;11.30;99.90;;;;;;4953300;28;20051;-77
2022/11/29 09:49:26;;;;;;;6.10;4.47;;;11.30;99.90;;;;;;4969501;28;20524;-77
2022/11/29 09:51:57;;;;;;;7.22;4.82;;;11.30;99.90;;;;;;4917710;28;20047;-76
2022/11/29 09:54:58;;;;;;;7.15;4.85;;;11.40;99.90;;;;;;4950611;29;20355;-76
2022/11/29 09:57:29;;;;;;;6.60;3.88;;;11.40;99.90;;;;;;4951156;28;20051;-76
2022/11/29 10:00:03;;;;;;;6.93;4.95;;;11.40;99.90;;;;;;4960973;28;20059;-76
2022/11/29 10:02:35;;;;;;;10.40;7.25;;;11.40;99.90;;;;;;4969815;28;20050;-76
2022/11/29 10:05:12;;;;;;;9.18;7.30;;;11.50;99.90;;;;;;4969431;28;20055;-76
2022/11/29 10:07:49;;;;;;;9.18;6.10;;;11.40;99.90;;;;;;4946784;28;20141;-76
2022/11/29 10:10:19;;;;;;;;;;;11.30;99.90;;;;;;4983274;28;20392;-76
2022/11/29 10:12:54;;;;;;;6.50;5.03;;;11.20;99.90;;;;;;4955711;28;19980;-77
2022/11/29 10:15:30;;;;;;;9.85;5.00;;;11.10;99.90;;;;;;4986336;28;20732;-76
2022/11/29 10:18:15;;;;;;;9.45;5.00;;;11.10;99.90;;;;;;4984097;28;20069;-76
2022/11/29 10:20:45;;;;;;;6.45;4.70;;;11.20;99.90;;;;;;4982290;28;20137;-76
2022/11/29 10:23:40;;;;;;;12.32;8.65;;;11.20;99.90;;;;;;4987940;28;20088;-76
2022/11/29 10:26:10;;;;;;;11.05;7.50;;;11.20;99.90;;;;;;4968144;28;20062;-75
2022/11/29 10:28:43;;;;;;;10.10;7.80;;;11.10;99.90;;;;;;4940377;28;20824;-76
2022/11/29 10:31:17;;;;;;;10.30;7.30;;;11.00;99.90;;;;;;4963300;28;20976;-76
2022/11/29 10:33:45;;;;;;;8.55;6.80;;;11.10;99.90;;;;;;4974986;28;20127;-76
2022/11/29 10:36:28;;;;;;;10.70;5.95;;;11.20;99.90;;;;;;4953404;28;20098;-76
2022/11/29 10:39:01;;;;;;;8.90;5.72;;;11.30;99.90;;;;;;4949193;28;20047;-76
2022/11/29 10:41:29;;;;;;;10.68;7.85;;;11.40;99.90;;;;;;4948548;28;20094;-76
2022/11/29 10:43:58;;;;;;;13.52;8.77;;;11.50;99.90;;;;;;4932093;29;20468;-76
2022/11/29 10:46:34;;;;;;;15.07;9.88;;;11.60;99.90;;;;;;4933494;29;20055;-76
2022/11/29 10:49:05;;;;;;;14.32;8.90;;;11.70;99.90;;;;;;4964836;28;20066;-76
2022/11/29 10:51:33;;;;;;;13.32;8.93;;;11.80;99.90;;;;;;4950176;29;20142;-76
2022/11/29 10:54:28;;;;;;;17.15;11.80;;;12.00;99.90;;;;;;4933401;29;20138;-76
2022/11/29 10:56:59;;;;;;;14.50;9.65;;;12.10;99.90;;;;;;4939126;28;20077;-75
2022/11/29 10:59:31;;;;;;;12.50;8.25;;;12.20;99.90;;;;;;4968241;28;20038;-76
2022/11/29 11:02:00;;;;;;;11.30;9.02;;;12.30;99.90;;;;;;4968064;28;20046;-76
2022/11/29 11:04:36;;;;;;;12.25;8.20;;;12.40;99.90;;;;;;4952499;28;20072;-76
2022/11/29 11:07:05;;;;;;;9.27;7.07;;;12.50;99.90;;;;;;4951564;28;20035;-76
2022/11/29 11:09:41;;;;;;;8.10;5.93;;;12.50;99.90;;;;;;4967262;28;20043;-76
2022/11/29 11:12:14;;;;;;;8.60;6.28;;;12.50;99.90;;;;;;4983510;28;20062;-76
2022/11/29 11:14:43;;;;;;;6.72;4.72;;;12.60;99.90;;;;;;4956894;28;20047;-76
2022/11/29 11:17:24;;;;;;;7.32;5.32;;;12.70;99.90;;;;;;4985793;28;20050;-77
2022/11/29 11:20:07;;;;;;;7.25;6.07;;;12.80;99.90;;;;;;4969395;28;20089;-76
2022/11/29 11:22:38;;;;;;;8.30;5.45;;;12.80;99.90;;;;;;4971556;28;20039;-75
2022/11/29 11:25:28;;;;;;;10.00;6.85;;;12.90;99.90;;;;;;4972743;28;20043;-76
2022/11/29 11:27:57;;;;;;;12.98;8.10;;;13.00;99.90;;;;;;4971474;28;20165;-76
2022/11/29 11:30:27;;;;;;;12.63;9.38;;;13.10;99.90;;;;;;4968026;28;20058;-76
2022/11/29 11:33:18;;;;;;;12.90;10.27;;;13.20;99.90;;;;;;4971799;28;20050;-77
2022/11/29 11:36:07;;;;;;;12.20;8.73;;;13.30;99.90;;;;;;4953151;28;20063;-76
2022/11/29 11:38:48;;;;;;;11.95;6.88;;;13.40;99.90;;;;;;4978947;28;20051;-77
2022/11/29 11:44:29;;;;;;;6.70;5.03;;;13.60;99.90;;;;;;4964058;28;20097;-76
2022/11/29 11:47:16;;;;;;;7.50;5.22;;;13.60;99.90;;;;;;4969695;28;20543;-74
2022/11/29 11:50:09;;;;;;;8.20;5.20;;;13.70;99.90;;;;;;4971315;28;20077;-74
2022/11/29 11:52:47;;;;;;;6.53;4.70;;;13.70;99.90;;;;;;4967303;28;20098;-76
2022/11/29 11:55:42;;;;;;;5.00;3.40;;;13.70;99.90;;;;;;4940684;29;20518;-76
2022/11/29 11:58:12;;;;;;;4.88;4.00;;;13.60;99.90;;;;;;4970707;28;20477;-75
2022/11/29 12:00:48;;;;;;;6.05;4.13;;;13.60;99.90;;;;;;4963247;28;20133;-76
2022/11/29 12:03:49;;;;;;;7.13;5.10;;;13.60;99.90;;;;;;4953725;28;20069;-77
2022/11/29 12:06:33;;;;;;;6.80;5.13;;;13.50;99.90;;;;;;4946440;28;20055;-76
2022/11/29 12:09:24;;;;;;;6.97;5.80;;;13.50;99.90;;;;;;4968181;28;20047;-77
2022/11/29 12:12:03;;;;;;;7.00;4.93;;;13.50;99.90;;;;;;4971737;28;20047;-76
2022/11/29 12:14:34;;;;;;;6.57;4.40;;;13.40;99.90;;;;;;4972115;28;20078;-78
2022/11/29 12:17:27;;;;;;;7.20;4.63;;;13.40;99.90;;;;;;4963620;28;20062;-76
2022/11/29 12:20:13;;;;;;;9.63;5.40;;;13.40;99.90;;;;;;4928011;28;20394;-76
2022/11/29 12:22:49;;;;;;;7.93;5.68;;;13.30;99.90;;;;;;4954892;28;20485;-76
2022/11/29 12:25:22;;;;;;;9.32;6.60;;;13.30;99.90;;;;;;4957108;28;20405;-77
2022/11/29 12:27:50;;;;;;;8.43;6.65;;;13.30;99.90;;;;;;4945617;28;20047;-77
2022/11/29 12:30:18;;;;;;;8.48;7.25;;;13.30;99.90;;;;;;4970124;28;20511;-76
2022/11/29 12:33:38;;;;;;;10.70;7.57;;;13.30;99.90;;;;;;4970078;28;20057;-77
2022/11/29 12:36:36;;;;;;;11.40;8.65;;;13.40;99.90;;;;;;4931739;28;20046;-77
2022/11/29 12:39:06;;;;;;;13.60;7.28;;;13.40;99.90;;;;;;4960063;28;20070;-77
2022/11/29 12:41:43;;;;;;;7.93;5.95;;;13.40;99.90;;;;;;4963396;28;20754;-77
2022/11/29 12:44:23;;;;;;;6.65;5.43;;;13.40;99.90;;;;;;4952478;28;20508;-77
2022/11/29 12:47:08;;;;;;;7.40;5.90;;;13.40;99.90;;;;;;4966954;28;20389;-77
2022/11/29 12:50:14;;;;;;;10.40;5.20;;;13.40;99.90;;;;;;4951728;28;20038;-77
2022/11/29 12:52:49;;;;;;;8.90;5.63;;;13.30;99.90;;;;;;4948439;28;20556;-76
2022/11/29 12:55:29;;;;;;;10.10;7.07;;;13.30;99.90;;;;;;4950227;28;20047;-76
2022/11/29 12:58:06;;;;;;;7.13;5.72;;;13.30;99.90;;;;;;4967251;28;20841;-76
2022/11/29 13:00:48;;;;;;;8.43;6.07;;;13.30;99.90;;;;;;4951785;28;20141;-76
2022/11/29 13:03:48;;;;;;;8.70;6.20;;;13.20;99.90;;;;;;4960520;28;20173;-76
2022/11/29 13:06:56;;;;;;;14.23;7.85;;;13.20;99.90;;;;;;4956416;28;20050;-76
2022/11/29 13:09:24;;;;;;;9.35;7.55;;;13.10;99.90;;;;;;4982350;28;20117;-77
2022/11/29 13:12:07;;;;;;;14.68;10.98;;;13.10;99.90;;;;;;4967685;28;20153;-76
2022/11/29 13:14:50;;;;;;;12.35;9.27;;;13.00;99.90;;;;;;4973828;28;20058;-76
2022/11/29 13:17:47;;;;;;;18.98;12.38;;;12.80;99.90;;;;;;4969293;28;20525;-77
2022/11/29 13:20:23;;;;;;;27.80;17.57;;;12.80;99.90;;;;;;4929188;28;20805;-76
2022/11/29 13:23:26;;;;;;;19.55;11.63;;;12.70;99.90;;;;;;4961014;28;20046;-77
2022/11/29 13:26:03;;;;;;;16.90;11.75;;;12.60;99.90;;;;;;4955122;28;20240;-77
2022/11/29 13:28:38;;;;;;;20.80;14.82;;;12.60;99.90;;;;;;4970022;28;20137;-79
2022/11/29 13:31:14;;;;;;;19.85;13.57;;;12.60;99.90;;;;;;4953216;28;20054;-76
2022/11/29 13:33:54;;;;;;;17.58;13.02;;;12.60;99.90;;;;;;4953672;28;20122;-76
2022/11/29 13:36:44;;;;;;;16.17;11.70;;;12.60;99.90;;;;;;4972555;28;20058;-76
2022/11/29 13:39:39;;;;;;;14.98;11.10;;;12.60;99.90;;;;;;4959735;28;20051;-76
2022/11/29 13:42:32;;;;;;;15.93;12.80;;;12.60;99.90;;;;;;4965997;28;20378;-76
2022/11/29 13:45:20;;;;;;;12.70;10.98;;;12.70;99.90;;;;;;4947595;28;20567;-76
2022/11/29 13:47:56;;;;;;;13.93;11.23;;;12.70;99.90;;;;;;4934707;28;20450;-76
2022/11/29 13:50:37;;;;;;;18.63;11.90;;;12.70;99.90;;;;;;4957880;28;20047;-76
2022/11/29 13:53:20;;;;;;;11.60;9.27;;;12.70;99.90;;;;;;4967904;28;20068;-76
2022/11/29 13:56:00;;;;;;;15.38;11.60;;;12.80;99.90;;;;;;4970457;28;20417;-76
2022/11/29 13:58:28;;;;;;;14.95;10.13;;;12.70;99.90;;;;;;4965308;28;20055;-76